Terminal Aerodrome Forecast
Issued by NWS

Current Version | Previous Version | Text Only | Print | Product List | Glossary On
Versions: 1 2 3 4 5 6 7 8 9 10 11 12 13 14 15 16 17 18 19 20 21 22 23 24 25 26 27 28 29
000 FTUS41 KILN 262300 AAA TAFLUK TAF AMD KLUK 262301Z 2623/2718 VRB03KT P6SM SCT028 FM270600 32005KT P6SM BKN018 FM271500 31010KT P6SM BKN025=

USA.gov is the U.S. government's official web portal to all federal, state and local government web resources and services.